createdAt,value
2022-10-21T00:01:32.100Z,100465.48
2022-10-21T00:03:58.537Z,100454.64
2022-10-21T00:06:25.009Z,100459.23
2022-10-21T00:08:51.517Z,100462.29
2022-10-21T00:11:17.996Z,100464.35
2022-10-21T00:13:44.403Z,100464.42
2022-10-21T00:16:14.309Z,100465.95
2022-10-21T00:18:43.184Z,100465.76
2022-10-21T00:21:12.654Z,100461.45
2022-10-21T00:23:39.960Z,100455.89
2022-10-21T00:26:07.141Z,100455.66
2022-10-21T00:28:33.561Z,100454.55
2022-10-21T00:31:00.239Z,100444.30
2022-10-21T00:33:27.793Z,100437.55
2022-10-21T00:35:57.171Z,100439.23
2022-10-21T00:38:23.683Z,100437.15
2022-10-21T00:40:50.271Z,100430.45
2022-10-21T00:43:17.916Z,100430.77
2022-10-21T00:45:45.255Z,100420.45
2022-10-21T00:48:25.203Z,100416.11
2022-10-21T00:50:54.915Z,100412.52
2022-10-21T00:53:22.399Z,100412.99
2022-10-21T00:55:59.951Z,100410.80
2022-10-21T00:58:30.186Z,100406.83
2022-10-21T01:00:59.406Z,100408.49
2022-10-21T01:03:28.202Z,100413.70
2022-10-21T01:05:57.512Z,100414.67
2022-10-21T01:08:26.255Z,100411.36
2022-10-21T01:10:53.595Z,100397.65
2022-10-21T01:13:57.677Z,100391.43
2022-10-21T01:16:48.425Z,100379.73
2022-10-21T01:19:21.140Z,100377.80
2022-10-21T01:21:59.594Z,100370.52
2022-10-21T01:24:59.062Z,100368.48
2022-10-21T01:27:40.683Z,100367.83
2022-10-21T01:30:29.728Z,100374.58
2022-10-21T01:33:06.481Z,100372.23
2022-10-21T01:35:55.286Z,100374.77
2022-10-21T01:38:42.090Z,100375.96
2022-10-21T01:41:29.896Z,100372.42
2022-10-21T01:44:23.092Z,100369.10
2022-10-21T01:47:01.680Z,100357.61
2022-10-21T01:49:44.164Z,100352.96
2022-10-21T01:52:12.457Z,100341.94
2022-10-21T01:54:43.638Z,100332.84
2022-10-21T01:57:14.241Z,100330.68
2022-10-21T01:59:43.787Z,100328.07
2022-10-21T02:02:11.669Z,100321.63
2022-10-21T02:04:42.092Z,100318.39
2022-10-21T02:07:09.536Z,100316.46
2022-10-21T02:09:36.061Z,100319.65
2022-10-21T02:12:05.561Z,100329.85
2022-10-21T02:14:41.312Z,100335.63
2022-10-21T02:17:11.271Z,100332.89
2022-10-21T02:19:37.745Z,100324.91
2022-10-21T02:22:06.304Z,100320.88
2022-10-21T02:24:56.212Z,100315.42
2022-10-21T02:27:24.139Z,100316.05
2022-10-21T02:29:58.726Z,100311.96
2022-10-21T02:32:55.627Z,100311.56
2022-10-21T02:35:40.936Z,100312.13
2022-10-21T02:38:26.003Z,100308.94
2022-10-21T02:40:58.283Z,100296.19
2022-10-21T02:43:33.540Z,100290.90
2022-10-21T02:46:02.080Z,100290.11
2022-10-21T02:48:28.621Z,100294.53
2022-10-21T02:50:55.023Z,100297.88
2022-10-21T02:53:21.423Z,100293.48
2022-10-21T02:55:47.897Z,100281.02
2022-10-21T02:58:14.274Z,100279.39
2022-10-21T03:00:43.871Z,100278.66
2022-10-21T03:03:10.687Z,100276.89
2022-10-21T03:05:37.145Z,100277.45
2022-10-21T03:08:03.731Z,100276.27
2022-10-21T03:10:30.354Z,100275.61
2022-10-21T03:12:56.786Z,100272.10
2022-10-21T03:15:23.255Z,100269.65
2022-10-21T03:17:49.756Z,100274.10
2022-10-21T03:20:16.504Z,100272.55
2022-10-21T03:22:44.077Z,100268.79
2022-10-21T03:25:11.079Z,100266.88
2022-10-21T03:27:37.618Z,100264.25
2022-10-21T03:30:05.398Z,100261.96
2022-10-21T03:32:32.069Z,100250.88
2022-10-21T03:34:58.461Z,100248.66
2022-10-21T03:37:24.947Z,100243.95
2022-10-21T03:39:51.384Z,100238.02
2022-10-21T03:42:17.997Z,100240.34
2022-10-21T03:44:44.403Z,100236.77
2022-10-21T03:47:10.888Z,100243.20
2022-10-21T03:49:37.436Z,100234.60
2022-10-21T03:52:03.995Z,100237.24
2022-10-21T03:54:30.551Z,100240.73
2022-10-21T03:56:57.001Z,100236.79
2022-10-21T03:59:23.468Z,100239.52
2022-10-21T04:01:52.880Z,100240.29
2022-10-21T04:04:19.517Z,100242.60
2022-10-21T04:06:46.048Z,100235.52
2022-10-21T04:09:12.610Z,100226.59
2022-10-21T04:11:39.169Z,100219.30
2022-10-21T04:14:05.614Z,100216.26
2022-10-21T04:16:33.771Z,100214.01
2022-10-21T04:19:01.035Z,100213.65
2022-10-21T04:21:27.431Z,100216.23
2022-10-21T04:23:53.882Z,100214.71
2022-10-21T04:26:20.321Z,100206.89
2022-10-21T04:28:46.823Z,100202.02
2022-10-21T04:31:13.224Z,100205.95
2022-10-21T04:33:39.688Z,100206.13
2022-10-21T04:36:06.439Z,100196.80
2022-10-21T04:38:32.850Z,100198.93
2022-10-21T04:41:01.964Z,100193.60
2022-10-21T04:43:29.232Z,100190.23
2022-10-21T04:45:55.996Z,100190.89
2022-10-21T04:48:23.003Z,100198.92
2022-10-21T04:50:51.206Z,100200.48
2022-10-21T04:53:17.627Z,100201.42
2022-10-21T04:55:47.840Z,100201.67
2022-10-21T04:58:16.192Z,100206.50
2022-10-21T05:00:44.737Z,100206.19
2022-10-21T05:03:11.969Z,100199.14
2022-10-21T05:05:38.689Z,100191.27
2022-10-21T05:08:10.653Z,100181.02
2022-10-21T05:10:38.161Z,100171.48
2022-10-21T05:13:05.989Z,100164.27
2022-10-21T05:15:33.691Z,100159.42
2022-10-21T05:18:00.473Z,100159.42
2022-10-21T05:20:27.007Z,100164.74
2022-10-21T05:22:53.572Z,100161.91
2022-10-21T05:25:20.351Z,100158.34
2022-10-21T05:27:47.166Z,100153.34
2022-10-21T05:30:14.399Z,100152.30
2022-10-21T05:32:43.356Z,100150.79
2022-10-21T05:35:11.955Z,100147.15
2022-10-21T05:37:39.494Z,100143.65
2022-10-21T05:40:07.004Z,100145.16
2022-10-21T05:42:33.901Z,100143.60
2022-10-21T05:45:00.322Z,100142.07
2022-10-21T05:47:26.675Z,100145.21
2022-10-21T05:49:53.128Z,100147.09
2022-10-21T05:52:19.558Z,100148.33
2022-10-21T05:54:45.996Z,100148.45
2022-10-21T05:57:15.064Z,100155.66
2022-10-21T05:59:41.422Z,100160.11
2022-10-21T06:02:09.875Z,100162.89
2022-10-21T06:04:38.639Z,100162.89
2022-10-21T06:07:05.540Z,100156.96
2022-10-21T06:09:31.919Z,100151.38
2022-10-21T06:11:58.318Z,100155.41
2022-10-21T06:14:25.965Z,100155.81
2022-10-21T06:16:53.919Z,100159.96
2022-10-21T06:19:20.311Z,100161.73
2022-10-21T06:21:48.099Z,100162.30
2022-10-21T06:24:15.206Z,100162.34
2022-10-21T06:26:42.035Z,100159.89
2022-10-21T06:31:44.370Z,100165.22
2022-10-21T06:34:10.852Z,100167.80
2022-10-21T06:36:39.932Z,100172.92
2022-10-21T06:39:08.116Z,100174.33
2022-10-21T06:41:34.872Z,100174.71
2022-10-21T06:44:01.263Z,100182.34
2022-10-21T06:46:27.625Z,100182.92
2022-10-21T06:48:53.996Z,100183.23
2022-10-21T06:51:22.661Z,100188.05
2022-10-21T06:53:54.700Z,100193.39
2022-10-21T06:56:22.353Z,100192.48
2022-10-21T06:58:49.815Z,100192.66
2022-10-21T07:01:34.735Z,100195.11
2022-10-21T07:04:09.220Z,100197.60
2022-10-21T07:06:35.958Z,100204.27
2022-10-21T07:09:04.224Z,100209.17
2022-10-21T07:11:30.663Z,100211.88
2022-10-21T07:13:57.083Z,100206.71
2022-10-21T07:16:26.348Z,100203.67
2022-10-21T07:18:53.821Z,100202.90
2022-10-21T07:21:22.252Z,100206.71
2022-10-21T07:23:51.560Z,100205.97
2022-10-21T07:26:19.942Z,100203.55
2022-10-21T07:28:48.162Z,100200.45
2022-10-21T07:31:17.176Z,100201.77
2022-10-21T07:33:46.610Z,100207.70
2022-10-21T07:36:20.203Z,100209.94
2022-10-21T07:38:48.081Z,100209.88
2022-10-21T07:41:19.374Z,100206.05
2022-10-21T07:43:45.974Z,100200.36
2022-10-21T07:46:15.354Z,100201.54
2022-10-21T07:48:41.944Z,100201.63
2022-10-21T07:51:12.786Z,100204.76
2022-10-21T07:53:40.053Z,100205.31
2022-10-21T07:56:15.121Z,100203.83
2022-10-21T07:58:42.471Z,100196.75
2022-10-21T08:01:10.509Z,100195.02
2022-10-21T08:03:38.062Z,100192.66
2022-10-21T08:06:05.915Z,100189.15
2022-10-21T08:08:33.243Z,100183.89
2022-10-21T08:10:59.720Z,100182.92
2022-10-21T08:13:26.729Z,100182.31
2022-10-21T08:15:56.778Z,100183.73
2022-10-21T08:18:26.096Z,100185.61
2022-10-21T08:20:52.690Z,100182.06
2022-10-21T08:23:21.193Z,100182.59
2022-10-21T08:25:55.101Z,100184.00
2022-10-21T08:28:23.292Z,100185.58
2022-10-21T08:30:49.948Z,100191.27
2022-10-21T08:33:17.371Z,100186.65
2022-10-21T08:35:44.087Z,100184.11
2022-10-21T08:38:11.450Z,100179.83
2022-10-21T08:40:41.436Z,100178.66
2022-10-21T08:43:29.583Z,100174.30
2022-10-21T08:46:03.047Z,100173.73
2022-10-21T08:48:47.930Z,100166.88
2022-10-21T08:51:30.238Z,100165.75
2022-10-21T08:54:12.310Z,100166.61
2022-10-21T08:56:39.937Z,100167.78
2022-10-21T08:59:19.067Z,100165.57
2022-10-21T09:02:14.376Z,100163.21
2022-10-21T09:05:04.356Z,100159.27
2022-10-21T09:07:57.237Z,100162.77
2022-10-21T09:10:42.437Z,100162.61
2022-10-21T09:13:23.182Z,100165.77
2022-10-21T09:16:22.135Z,100160.00
2022-10-21T09:18:57.411Z,100157.34
2022-10-21T09:22:16.458Z,100154.93
2022-10-21T09:24:53.321Z,100150.56
2022-10-21T09:27:27.045Z,100155.22
2022-10-21T09:30:07.281Z,100157.88
2022-10-21T09:32:39.302Z,100158.70
2022-10-21T09:35:16.205Z,100153.42
2022-10-21T09:37:51.678Z,100158.09
2022-10-21T09:40:20.834Z,100155.21
2022-10-21T09:42:51.594Z,100158.80
2022-10-21T09:45:24.755Z,100158.77
2022-10-21T09:47:58.577Z,100156.77
2022-10-21T09:50:25.921Z,100154.71
2022-10-21T09:53:00.901Z,100153.30
2022-10-21T09:55:28.888Z,100149.81
2022-10-21T09:57:59.090Z,100144.37
2022-10-21T10:00:44.593Z,100146.49
2022-10-21T10:03:12.067Z,100152.45
2022-10-21T10:05:48.031Z,100157.33
2022-10-21T10:08:33.171Z,100163.20
2022-10-21T10:11:03.805Z,100163.59
2022-10-21T10:13:31.978Z,100165.09
2022-10-21T10:16:22.986Z,100165.48
2022-10-21T10:19:09.939Z,100159.27
2022-10-21T10:21:36.367Z,100158.80
2022-10-21T10:24:03.180Z,100153.14
2022-10-21T10:26:38.068Z,100150.67
2022-10-21T10:29:23.676Z,100156.55
2022-10-21T10:31:55.475Z,100157.02
2022-10-21T10:34:37.447Z,100154.59
2022-10-21T10:37:20.435Z,100154.84
2022-10-21T10:39:50.830Z,100149.48
2022-10-21T10:42:24.203Z,100147.70
2022-10-21T10:45:02.327Z,100146.41
2022-10-21T10:47:41.935Z,100139.70
2022-10-21T10:50:41.539Z,100141.40
2022-10-21T10:53:21.287Z,100141.90
2022-10-21T10:55:55.391Z,100152.19
2022-10-21T10:58:28.022Z,100152.07
2022-10-21T11:00:59.650Z,100149.83
2022-10-21T11:04:02.476Z,100153.80
2022-10-21T11:06:35.226Z,100149.06
2022-10-21T11:09:02.786Z,100148.91
2022-10-21T11:11:43.483Z,100152.83
2022-10-21T11:14:20.216Z,100153.81
2022-10-21T11:17:00.507Z,100160.39
2022-10-21T11:19:30.264Z,100160.00
2022-10-21T11:22:24.726Z,100165.48
2022-10-21T11:25:02.389Z,100170.67
2022-10-21T11:27:46.909Z,100169.41
2022-10-21T11:30:19.686Z,100168.39
2022-10-21T11:32:48.633Z,100164.96
2022-10-21T11:35:24.910Z,100165.51
2022-10-21T11:38:06.541Z,100165.13
2022-10-21T11:40:38.266Z,100166.66
2022-10-21T11:43:33.967Z,100166.55
2022-10-21T11:46:22.774Z,100162.67
2022-10-21T11:49:24.830Z,100159.52
2022-10-21T11:52:13.041Z,100156.02
2022-10-21T11:55:08.269Z,100156.94
2022-10-21T11:58:18.791Z,100157.71
2022-10-21T12:01:19.385Z,100149.31
2022-10-21T12:04:08.856Z,100149.45
2022-10-21T12:07:10.308Z,100147.17
2022-10-21T12:09:49.223Z,100146.28
2022-10-21T12:12:25.160Z,100148.90
2022-10-21T12:15:02.391Z,100149.79
2022-10-21T12:17:32.961Z,100155.33
2022-10-21T12:20:03.545Z,100151.72
2022-10-21T12:22:33.263Z,100150.44
2022-10-21T12:25:31.699Z,100148.22
2022-10-21T12:28:22.299Z,100145.92
2022-10-21T12:31:23.475Z,100148.79
2022-10-21T12:33:50.542Z,100147.55
2022-10-21T12:36:22.828Z,100150.77
2022-10-21T12:38:54.603Z,100156.36
2022-10-21T12:41:24.122Z,100154.34
2022-10-21T12:44:03.006Z,100154.11
2022-10-21T12:46:39.078Z,100152.96
2022-10-21T12:49:18.981Z,100151.13
2022-10-21T12:52:03.838Z,100151.44
2022-10-21T12:55:01.041Z,100152.50
2022-10-21T12:57:37.410Z,100152.67
2022-10-21T13:03:04.823Z,100150.30
2022-10-21T13:05:37.364Z,100149.34
2022-10-21T13:08:19.061Z,100149.58
2022-10-21T13:11:04.430Z,100144.41
2022-10-21T13:13:39.341Z,100142.13
2022-10-21T13:16:17.978Z,100137.45
2022-10-21T13:18:50.484Z,100138.72
2022-10-21T13:21:35.338Z,100138.36
2022-10-21T13:24:23.570Z,100138.71
2022-10-21T13:26:55.727Z,100139.66
2022-10-21T13:29:25.117Z,100143.11
2022-10-21T13:32:12.381Z,100140.68
2022-10-21T13:35:01.745Z,100146.73
2022-10-21T13:37:35.673Z,100147.33
2022-10-21T13:40:16.721Z,100144.45
2022-10-21T13:42:49.488Z,100145.33
2022-10-21T13:45:36.741Z,100144.48
2022-10-21T13:48:03.113Z,100146.40
2022-10-21T13:50:33.597Z,100144.85
2022-10-21T13:53:05.442Z,100152.74
2022-10-21T13:55:31.829Z,100153.82
2022-10-21T13:57:58.259Z,100150.95
2022-10-21T14:00:32.298Z,100149.02
2022-10-21T14:03:05.524Z,100153.73
2022-10-21T14:05:38.587Z,100157.23
2022-10-21T14:08:17.160Z,100164.55
2022-10-21T14:10:46.664Z,100162.63
2022-10-21T14:13:13.717Z,100163.08
2022-10-21T14:15:43.647Z,100164.30
2022-10-21T14:18:42.375Z,100162.09
2022-10-21T14:21:17.915Z,100162.34
2022-10-21T14:23:46.642Z,100165.15
2022-10-21T14:26:13.436Z,100167.52
2022-10-21T14:28:40.022Z,100161.23
2022-10-21T14:31:11.612Z,100162.34
2022-10-21T14:33:42.348Z,100159.11
2022-10-21T14:36:15.721Z,100157.69
2022-10-21T14:38:59.078Z,100156.39
2022-10-21T14:41:30.286Z,100155.25
2022-10-21T14:44:04.975Z,100157.95
2022-10-21T14:46:39.425Z,100158.23
2022-10-21T14:49:06.362Z,100157.40
2022-10-21T14:51:38.038Z,100152.77
2022-10-21T14:54:07.290Z,100153.56
2022-10-21T14:56:42.741Z,100148.07
2022-10-21T14:59:40.983Z,100144.11
2022-10-21T15:02:28.396Z,100149.11
2022-10-21T15:05:03.651Z,100155.91
2022-10-21T15:07:33.226Z,100154.52
2022-10-21T15:10:02.733Z,100155.23
2022-10-21T15:12:53.377Z,100153.98
2022-10-21T15:15:42.203Z,100156.09
2022-10-21T15:18:18.010Z,100154.05
2022-10-21T15:20:58.430Z,100151.27
2022-10-21T15:23:31.282Z,100142.77
2022-10-21T15:26:15.873Z,100134.73
2022-10-21T15:28:43.297Z,100130.20
2022-10-21T15:31:18.641Z,100137.15
2022-10-21T15:33:45.165Z,100132.81
2022-10-21T15:36:14.157Z,100139.48
2022-10-21T15:38:46.722Z,100135.41
2022-10-21T15:41:25.309Z,100141.71
2022-10-21T15:44:03.265Z,100144.41
2022-10-21T15:46:33.136Z,100150.02
2022-10-21T15:49:11.991Z,100156.46
2022-10-21T15:51:38.393Z,100145.98
2022-10-21T15:54:04.732Z,100157.75
2022-10-21T15:56:31.118Z,100159.92
2022-10-21T15:58:57.508Z,100157.39
2022-10-21T16:01:23.890Z,100157.35
2022-10-21T16:03:50.364Z,100155.19
2022-10-21T16:06:19.588Z,100158.08
2022-10-21T16:08:46.973Z,100160.41
2022-10-21T16:11:25.671Z,100164.64
2022-10-21T16:14:01.693Z,100168.75
2022-10-21T16:16:28.216Z,100173.22
2022-10-21T16:18:54.894Z,100170.40
2022-10-21T16:21:22.986Z,100181.52
2022-10-21T16:23:50.129Z,100185.73
2022-10-21T16:26:22.082Z,100183.53
2022-10-21T16:28:49.781Z,100186.65
2022-10-21T16:31:16.312Z,100187.20
2022-10-21T16:33:42.880Z,100188.78
2022-10-21T16:36:20.264Z,100193.81
2022-10-21T16:38:47.417Z,100188.86
2022-10-21T16:41:16.894Z,100189.42
2022-10-21T16:43:43.930Z,100185.05
2022-10-21T16:46:22.614Z,100183.98
2022-10-21T16:48:51.843Z,100179.15
2022-10-21T16:51:18.586Z,100173.54
2022-10-21T16:53:44.940Z,100172.38
2022-10-21T16:56:11.298Z,100171.53
2022-10-21T16:58:37.770Z,100175.16
2022-10-21T17:01:06.078Z,100179.74
2022-10-21T17:03:33.996Z,100177.60
2022-10-21T17:06:00.705Z,100180.23
2022-10-21T17:08:27.080Z,100184.59
2022-10-21T17:10:53.512Z,100194.21
2022-10-21T17:13:19.907Z,100194.75
2022-10-21T17:15:46.317Z,100201.58
2022-10-21T17:18:15.473Z,100208.12
2022-10-21T17:20:43.173Z,100210.15
2022-10-21T17:23:11.767Z,100210.27
2022-10-21T17:25:38.282Z,100209.58
2022-10-21T17:28:04.931Z,100212.55
2022-10-21T17:30:31.447Z,100212.34
2022-10-21T17:32:57.905Z,100216.33
2022-10-21T17:35:24.504Z,100218.67
2022-10-21T17:37:52.368Z,100221.30
2022-10-21T17:40:22.984Z,100218.76
2022-10-21T17:42:49.645Z,100220.48
2022-10-21T17:45:17.856Z,100218.25
2022-10-21T17:47:45.041Z,100218.17
2022-10-21T17:50:12.712Z,100221.18
2022-10-21T17:52:41.376Z,100221.12
2022-10-21T17:55:08.439Z,100220.20
2022-10-21T17:57:35.407Z,100210.66
2022-10-21T18:00:03.543Z,100211.27
2022-10-21T18:02:33.366Z,100209.70
2022-10-21T18:05:00.793Z,100206.66
2022-10-21T18:07:28.554Z,100208.20
2022-10-21T18:09:55.597Z,100206.59
2022-10-21T18:12:23.178Z,100202.27
2022-10-21T18:14:51.496Z,100206.96
2022-10-21T18:17:19.177Z,100211.48
2022-10-21T18:19:47.043Z,100212.64
2022-10-21T18:22:14.027Z,100210.48
2022-10-21T18:24:40.836Z,100210.42
2022-10-21T18:27:08.054Z,100214.63
2022-10-21T18:29:35.084Z,100210.30
2022-10-21T18:32:01.878Z,100208.73
2022-10-21T18:34:29.900Z,100210.02
2022-10-21T18:36:59.392Z,100207.29
2022-10-21T18:39:26.764Z,100207.21
2022-10-21T18:41:53.721Z,100205.36
2022-10-21T18:44:20.153Z,100205.61
2022-10-21T18:46:49.230Z,100207.36
2022-10-21T18:49:18.408Z,100213.28
2022-10-21T18:51:45.447Z,100212.31
2022-10-21T18:54:15.699Z,100211.84
2022-10-21T18:56:42.139Z,100216.57
2022-10-21T18:59:09.910Z,100218.34
2022-10-21T19:01:36.999Z,100211.71
2022-10-21T19:04:03.769Z,100213.78
2022-10-21T19:06:40.529Z,100215.77
2022-10-21T19:09:22.513Z,100218.23
2022-10-21T19:11:49.027Z,100218.55
2022-10-21T19:14:16.130Z,100217.98
2022-10-21T19:16:44.065Z,100222.42
2022-10-21T19:19:11.558Z,100224.11
2022-10-21T19:21:38.027Z,100224.98
2022-10-21T19:24:04.918Z,100229.09
2022-10-21T19:26:34.077Z,100226.41
2022-10-21T19:29:03.372Z,100223.11
2022-10-21T19:31:32.387Z,100224.30
2022-10-21T19:34:02.371Z,100228.30
2022-10-21T19:36:28.798Z,100228.48
2022-10-21T19:38:55.185Z,100219.55
2022-10-21T19:41:23.118Z,100217.73
2022-10-21T19:43:51.802Z,100224.95
2022-10-21T19:46:24.832Z,100227.83
2022-10-21T19:48:52.503Z,100227.30
2022-10-21T19:51:22.089Z,100231.63
2022-10-21T19:53:50.147Z,100237.40
2022-10-21T19:56:20.893Z,100239.98
2022-10-21T19:58:50.620Z,100243.26
2022-10-21T20:01:26.388Z,100243.38
2022-10-21T20:03:54.249Z,100251.52
2022-10-21T20:06:22.392Z,100253.73
2022-10-21T20:08:49.283Z,100256.63
2022-10-21T20:11:19.079Z,100261.41
2022-10-21T20:13:46.245Z,100264.69
2022-10-21T20:16:38.916Z,100270.22
2022-10-21T20:19:06.947Z,100274.50
2022-10-21T20:21:35.316Z,100278.64
2022-10-21T20:24:02.844Z,100283.58
2022-10-21T20:26:29.762Z,100284.67
2022-10-21T20:28:57.302Z,100284.10
2022-10-21T20:31:24.430Z,100281.92
2022-10-21T20:33:51.739Z,100278.14
2022-10-21T20:36:27.357Z,100278.77
2022-10-21T20:38:58.228Z,100274.64
2022-10-21T20:41:28.192Z,100268.36
2022-10-21T20:43:55.019Z,100267.09
2022-10-21T20:46:23.682Z,100267.01
2022-10-21T20:48:52.159Z,100269.29
2022-10-21T20:51:24.291Z,100269.02
2022-10-21T20:54:02.970Z,100264.23
2022-10-21T20:56:35.131Z,100259.30
2022-10-21T20:59:02.893Z,100260.26
2022-10-21T21:01:32.602Z,100261.77
2022-10-21T21:04:04.683Z,100258.98
2022-10-21T21:06:35.246Z,100259.44
2022-10-21T21:09:33.092Z,100259.95
2022-10-21T21:11:48.324Z,100265.70
2022-10-21T21:14:15.020Z,100272.52
2022-10-21T21:16:41.463Z,100274.10
2022-10-21T21:19:11.839Z,100284.25
2022-10-21T21:21:38.687Z,100291.06
2022-10-21T21:24:05.563Z,100290.98
2022-10-21T21:26:35.667Z,100288.61
2022-10-21T21:29:02.919Z,100284.33
2022-10-21T21:31:31.082Z,100281.66
2022-10-21T21:33:57.796Z,100288.02
2022-10-21T21:36:25.361Z,100289.18
2022-10-21T21:38:54.016Z,100293.53
2022-10-21T21:41:22.497Z,100293.42
2022-10-21T21:43:50.964Z,100287.48
2022-10-21T21:46:23.864Z,100290.08
2022-10-21T21:48:59.493Z,100299.38
2022-10-21T21:51:33.842Z,100301.58
2022-10-21T21:54:00.349Z,100307.08
2022-10-21T21:56:28.013Z,100305.96
2022-10-21T21:58:56.248Z,100306.63
2022-10-21T22:01:25.267Z,100303.43
2022-10-21T22:03:52.009Z,100300.25
2022-10-21T22:06:21.625Z,100301.21
2022-10-21T22:08:48.789Z,100311.55
2022-10-21T22:11:18.845Z,100317.17
2022-10-21T22:13:45.990Z,100314.39
2022-10-21T22:16:15.291Z,100306.78
2022-10-21T22:18:42.494Z,100302.87
2022-10-21T22:21:12.987Z,100300.33
2022-10-21T22:23:40.133Z,100291.52
2022-10-21T22:26:07.711Z,100284.89
2022-10-21T22:28:35.094Z,100286.98
2022-10-21T22:31:05.426Z,100284.65
2022-10-21T22:33:32.491Z,100282.45
2022-10-21T22:35:59.240Z,100278.23
2022-10-21T22:38:25.771Z,100271.39
2022-10-21T22:40:53.853Z,100267.53
2022-10-21T22:43:20.385Z,100266.49
2022-10-21T22:45:48.137Z,100263.38
2022-10-21T22:48:15.762Z,100266.04
2022-10-21T22:50:42.335Z,100265.27
2022-10-21T22:53:09.411Z,100269.83
2022-10-21T22:55:36.389Z,100276.38
2022-10-21T22:58:02.921Z,100276.75
2022-10-21T23:00:29.447Z,100276.21
2022-10-21T23:02:56.037Z,100273.26
2022-10-21T23:05:23.059Z,100269.42
2022-10-21T23:07:50.305Z,100273.60
2022-10-21T23:10:16.899Z,100283.70
2022-10-21T23:12:43.586Z,100294.71
2022-10-21T23:15:10.808Z,100307.20
2022-10-21T23:17:37.240Z,100311.02
2022-10-21T23:20:04.599Z,100310.65
2022-10-21T23:22:31.005Z,100308.13
2022-10-21T23:24:57.512Z,100294.55
2022-10-21T23:27:23.892Z,100287.34
2022-10-21T23:29:50.374Z,100284.23
2022-10-21T23:32:16.799Z,100285.40
2022-10-21T23:34:43.602Z,100278.45
2022-10-21T23:37:10.284Z,100272.27
2022-10-21T23:39:36.813Z,100271.69
2022-10-21T23:42:03.396Z,100274.72
2022-10-21T23:44:29.859Z,100273.85
2022-10-21T23:46:57.000Z,100271.64
2022-10-21T23:49:24.190Z,100275.58
2022-10-21T23:51:50.739Z,100274.36
2022-10-21T23:54:17.177Z,100271.06
2022-10-21T23:56:43.794Z,100272.50
2022-10-21T23:59:10.268Z,100276.27
